sensor_id;sensor_type;location;lat;lon;timestamp;P1;durP1;ratioP1;P2;durP2;ratioP2
27213;SDS011;14723;55.814;37.460;2023-04-08T00:01:59;12.52;;;3.65;;
27213;SDS011;14723;55.814;37.460;2023-04-08T00:05:08;14.27;;;3.63;;
27213;SDS011;14723;55.814;37.460;2023-04-08T00:08:14;13.25;;;3.70;;
27213;SDS011;14723;55.814;37.460;2023-04-08T00:11:19;10.50;;;3.65;;
27213;SDS011;14723;55.814;37.460;2023-04-08T00:14:25;8.18;;;3.42;;
27213;SDS011;14723;55.814;37.460;2023-04-08T00:17:31;13.27;;;3.88;;
27213;SDS011;14723;55.814;37.460;2023-04-08T00:20:38;14.63;;;4.00;;
27213;SDS011;14723;55.814;37.460;2023-04-08T00:23:44;15.75;;;4.20;;
27213;SDS011;14723;55.814;37.460;2023-04-08T00:26:49;25.13;;;5.15;;
27213;SDS011;14723;55.814;37.460;2023-04-08T00:29:55;16.42;;;4.43;;
27213;SDS011;14723;55.814;37.460;2023-04-08T00:33:01;10.98;;;3.65;;
27213;SDS011;14723;55.814;37.460;2023-04-08T00:36:09;9.57;;;3.78;;
27213;SDS011;14723;55.814;37.460;2023-04-08T00:39:14;12.65;;;3.55;;
27213;SDS011;14723;55.814;37.460;2023-04-08T00:42:19;12.32;;;4.18;;
27213;SDS011;14723;55.814;37.460;2023-04-08T00:45:25;13.73;;;4.00;;
27213;SDS011;14723;55.814;37.460;2023-04-08T00:48:30;11.00;;;3.83;;
27213;SDS011;14723;55.814;37.460;2023-04-08T00:51:39;15.07;;;4.03;;
27213;SDS011;14723;55.814;37.460;2023-04-08T00:54:44;10.13;;;4.03;;
27213;SDS011;14723;55.814;37.460;2023-04-08T00:57:50;8.98;;;4.13;;
27213;SDS011;14723;55.814;37.460;2023-04-08T01:00:57;14.07;;;4.55;;
27213;SDS011;14723;55.814;37.460;2023-04-08T01:04:05;10.32;;;3.65;;
27213;SDS011;14723;55.814;37.460;2023-04-08T01:10:20;10.55;;;4.10;;
27213;SDS011;14723;55.814;37.460;2023-04-08T01:13:27;9.65;;;4.05;;
27213;SDS011;14723;55.814;37.460;2023-04-08T01:16:34;14.55;;;4.30;;
27213;SDS011;14723;55.814;37.460;2023-04-08T01:19:40;9.15;;;4.45;;
27213;SDS011;14723;55.814;37.460;2023-04-08T01:22:52;14.55;;;4.47;;
27213;SDS011;14723;55.814;37.460;2023-04-08T01:26:02;13.30;;;4.43;;
27213;SDS011;14723;55.814;37.460;2023-04-08T01:29:07;13.23;;;4.00;;
27213;SDS011;14723;55.814;37.460;2023-04-08T01:32:12;13.32;;;4.03;;
27213;SDS011;14723;55.814;37.460;2023-04-08T01:35:19;10.85;;;4.55;;
27213;SDS011;14723;55.814;37.460;2023-04-08T01:38:24;11.18;;;4.75;;
27213;SDS011;14723;55.814;37.460;2023-04-08T01:41:33;15.88;;;5.45;;
27213;SDS011;14723;55.814;37.460;2023-04-08T01:44:40;12.50;;;5.05;;
27213;SDS011;14723;55.814;37.460;2023-04-08T01:47:46;13.30;;;5.20;;
27213;SDS011;14723;55.814;37.460;2023-04-08T01:50:53;14.32;;;5.22;;
27213;SDS011;14723;55.814;37.460;2023-04-08T01:53:59;16.92;;;5.38;;
27213;SDS011;14723;55.814;37.460;2023-04-08T01:57:07;16.45;;;4.43;;
27213;SDS011;14723;55.814;37.460;2023-04-08T02:00:17;9.73;;;4.00;;
27213;SDS011;14723;55.814;37.460;2023-04-08T02:03:25;10.63;;;4.10;;
27213;SDS011;14723;55.814;37.460;2023-04-08T02:06:32;10.18;;;4.00;;
27213;SDS011;14723;55.814;37.460;2023-04-08T02:09:38;7.10;;;3.58;;
27213;SDS011;14723;55.814;37.460;2023-04-08T02:12:46;11.48;;;4.00;;
27213;SDS011;14723;55.814;37.460;2023-04-08T02:15:53;14.07;;;4.07;;
27213;SDS011;14723;55.814;37.460;2023-04-08T02:19:01;14.90;;;4.30;;
27213;SDS011;14723;55.814;37.460;2023-04-08T02:22:11;15.18;;;4.40;;
27213;SDS011;14723;55.814;37.460;2023-04-08T02:25:22;18.35;;;4.47;;
27213;SDS011;14723;55.814;37.460;2023-04-08T02:28:31;10.02;;;4.82;;
27213;SDS011;14723;55.814;37.460;2023-04-08T02:31:39;13.70;;;5.05;;
27213;SDS011;14723;55.814;37.460;2023-04-08T02:34:48;22.80;;;6.22;;
27213;SDS011;14723;55.814;37.460;2023-04-08T02:37:54;11.25;;;4.60;;
27213;SDS011;14723;55.814;37.460;2023-04-08T02:40:59;15.65;;;4.75;;
27213;SDS011;14723;55.814;37.460;2023-04-08T02:44:07;11.50;;;4.25;;
27213;SDS011;14723;55.814;37.460;2023-04-08T02:47:14;15.32;;;4.95;;
27213;SDS011;14723;55.814;37.460;2023-04-08T02:50:20;15.18;;;4.50;;
27213;SDS011;14723;55.814;37.460;2023-04-08T02:53:25;13.70;;;4.55;;
27213;SDS011;14723;55.814;37.460;2023-04-08T02:56:31;13.77;;;4.25;;
27213;SDS011;14723;55.814;37.460;2023-04-08T02:59:39;15.18;;;4.30;;
27213;SDS011;14723;55.814;37.460;2023-04-08T03:02:45;22.02;;;5.30;;
27213;SDS011;14723;55.814;37.460;2023-04-08T03:05:50;12.82;;;4.30;;
27213;SDS011;14723;55.814;37.460;2023-04-08T03:08:56;10.40;;;4.30;;
27213;SDS011;14723;55.814;37.460;2023-04-08T03:12:01;16.70;;;4.78;;
27213;SDS011;14723;55.814;37.460;2023-04-08T03:15:10;15.07;;;4.68;;
27213;SDS011;14723;55.814;37.460;2023-04-08T03:18:15;9.40;;;4.13;;
27213;SDS011;14723;55.814;37.460;2023-04-08T03:21:21;13.02;;;4.88;;
27213;SDS011;14723;55.814;37.460;2023-04-08T03:24:26;11.40;;;4.18;;
27213;SDS011;14723;55.814;37.460;2023-04-08T03:27:31;16.27;;;4.72;;
27213;SDS011;14723;55.814;37.460;2023-04-08T03:30:40;14.48;;;5.00;;
27213;SDS011;14723;55.814;37.460;2023-04-08T03:33:45;20.00;;;4.87;;
27213;SDS011;14723;55.814;37.460;2023-04-08T03:36:50;16.63;;;4.68;;
27213;SDS011;14723;55.814;37.460;2023-04-08T03:39:55;10.45;;;4.50;;
27213;SDS011;14723;55.814;37.460;2023-04-08T03:43:00;12.27;;;4.82;;
27213;SDS011;14723;55.814;37.460;2023-04-08T03:46:09;12.85;;;4.72;;
27213;SDS011;14723;55.814;37.460;2023-04-08T03:49:15;12.85;;;5.35;;
27213;SDS011;14723;55.814;37.460;2023-04-08T03:52:21;14.10;;;5.00;;
27213;SDS011;14723;55.814;37.460;2023-04-08T03:55:27;21.08;;;5.28;;
27213;SDS011;14723;55.814;37.460;2023-04-08T03:58:32;14.18;;;5.50;;
27213;SDS011;14723;55.814;37.460;2023-04-08T04:01:40;18.23;;;5.40;;
27213;SDS011;14723;55.814;37.460;2023-04-08T04:04:48;26.90;;;6.32;;
27213;SDS011;14723;55.814;37.460;2023-04-08T04:07:54;12.23;;;5.13;;
27213;SDS011;14723;55.814;37.460;2023-04-08T04:10:59;12.25;;;5.47;;
27213;SDS011;14723;55.814;37.460;2023-04-08T04:14:05;14.55;;;4.60;;
27213;SDS011;14723;55.814;37.460;2023-04-08T04:17:13;12.85;;;5.50;;
27213;SDS011;14723;55.814;37.460;2023-04-08T04:20:18;15.60;;;5.05;;
27213;SDS011;14723;55.814;37.460;2023-04-08T04:23:23;14.02;;;5.57;;
27213;SDS011;14723;55.814;37.460;2023-04-08T04:26:29;15.77;;;6.47;;
27213;SDS011;14723;55.814;37.460;2023-04-08T04:29:35;16.60;;;5.97;;
27213;SDS011;14723;55.814;37.460;2023-04-08T04:32:43;14.63;;;5.85;;
27213;SDS011;14723;55.814;37.460;2023-04-08T04:35:48;16.48;;;5.32;;
27213;SDS011;14723;55.814;37.460;2023-04-08T04:38:54;32.15;;;6.80;;
27213;SDS011;14723;55.814;37.460;2023-04-08T04:41:59;15.70;;;5.68;;
27213;SDS011;14723;55.814;37.460;2023-04-08T04:45:05;14.65;;;5.82;;
27213;SDS011;14723;55.814;37.460;2023-04-08T04:48:13;13.80;;;5.53;;
27213;SDS011;14723;55.814;37.460;2023-04-08T04:51:18;11.55;;;6.22;;
27213;SDS011;14723;55.814;37.460;2023-04-08T04:54:24;24.40;;;6.80;;
27213;SDS011;14723;55.814;37.460;2023-04-08T04:57:29;14.68;;;5.95;;
27213;SDS011;14723;55.814;37.460;2023-04-08T05:00:35;16.58;;;6.60;;
27213;SDS011;14723;55.814;37.460;2023-04-08T05:03:43;19.05;;;6.70;;
27213;SDS011;14723;55.814;37.460;2023-04-08T05:06:49;18.67;;;6.65;;
27213;SDS011;14723;55.814;37.460;2023-04-08T05:09:54;19.23;;;6.63;;
27213;SDS011;14723;55.814;37.460;2023-04-08T05:13:00;15.57;;;6.57;;
27213;SDS011;14723;55.814;37.460;2023-04-08T05:16:05;20.02;;;6.47;;
27213;SDS011;14723;55.814;37.460;2023-04-08T05:19:13;15.73;;;6.53;;
27213;SDS011;14723;55.814;37.460;2023-04-08T05:22:19;15.85;;;6.97;;
27213;SDS011;14723;55.814;37.460;2023-04-08T05:25:24;19.75;;;6.50;;
27213;SDS011;14723;55.814;37.460;2023-04-08T05:28:30;22.35;;;6.97;;
27213;SDS011;14723;55.814;37.460;2023-04-08T05:31:35;20.00;;;7.28;;
27213;SDS011;14723;55.814;37.460;2023-04-08T05:34:43;21.23;;;7.10;;
27213;SDS011;14723;55.814;37.460;2023-04-08T05:37:48;15.93;;;6.85;;
27213;SDS011;14723;55.814;37.460;2023-04-08T05:40:53;14.75;;;6.65;;
27213;SDS011;14723;55.814;37.460;2023-04-08T05:43:59;15.32;;;6.68;;
27213;SDS011;14723;55.814;37.460;2023-04-08T05:47:04;18.77;;;7.22;;
27213;SDS011;14723;55.814;37.460;2023-04-08T05:50:12;26.05;;;8.60;;
27213;SDS011;14723;55.814;37.460;2023-04-08T05:53:18;22.63;;;8.13;;
27213;SDS011;14723;55.814;37.460;2023-04-08T05:56:23;26.48;;;7.90;;
27213;SDS011;14723;55.814;37.460;2023-04-08T05:59:29;26.77;;;8.93;;
27213;SDS011;14723;55.814;37.460;2023-04-08T06:02:34;26.05;;;8.10;;
27213;SDS011;14723;55.814;37.460;2023-04-08T06:05:42;24.25;;;8.88;;
27213;SDS011;14723;55.814;37.460;2023-04-08T06:08:48;17.13;;;8.23;;
27213;SDS011;14723;55.814;37.460;2023-04-08T06:11:54;23.08;;;8.95;;
27213;SDS011;14723;55.814;37.460;2023-04-08T06:14:59;21.05;;;9.52;;
27213;SDS011;14723;55.814;37.460;2023-04-08T06:18:05;20.33;;;8.25;;
27213;SDS011;14723;55.814;37.460;2023-04-08T06:21:13;21.50;;;9.23;;
27213;SDS011;14723;55.814;37.460;2023-04-08T06:24:19;20.85;;;8.80;;
27213;SDS011;14723;55.814;37.460;2023-04-08T06:27:24;24.48;;;9.52;;
27213;SDS011;14723;55.814;37.460;2023-04-08T06:30:29;25.42;;;9.73;;
27213;SDS011;14723;55.814;37.460;2023-04-08T06:33:35;31.15;;;9.93;;
27213;SDS011;14723;55.814;37.460;2023-04-08T06:36:43;29.25;;;9.50;;
27213;SDS011;14723;55.814;37.460;2023-04-08T06:42:54;20.35;;;8.00;;
27213;SDS011;14723;55.814;37.460;2023-04-08T06:46:09;23.17;;;7.97;;
27213;SDS011;14723;55.814;37.460;2023-04-08T06:49:15;24.13;;;9.15;;
27213;SDS011;14723;55.814;37.460;2023-04-08T06:52:23;19.83;;;7.82;;
27213;SDS011;14723;55.814;37.460;2023-04-08T06:55:28;26.00;;;9.02;;
27213;SDS011;14723;55.814;37.460;2023-04-08T06:58:33;28.25;;;9.52;;
27213;SDS011;14723;55.814;37.460;2023-04-08T07:01:39;20.45;;;8.10;;
27213;SDS011;14723;55.814;37.460;2023-04-08T07:04:45;18.52;;;7.95;;
27213;SDS011;14723;55.814;37.460;2023-04-08T07:07:53;18.10;;;7.10;;
27213;SDS011;14723;55.814;37.460;2023-04-08T07:10:58;14.35;;;7.40;;
27213;SDS011;14723;55.814;37.460;2023-04-08T07:14:04;17.52;;;7.50;;
27213;SDS011;14723;55.814;37.460;2023-04-08T07:17:09;18.98;;;7.38;;
27213;SDS011;14723;55.814;37.460;2023-04-08T07:20:15;20.48;;;7.90;;
27213;SDS011;14723;55.814;37.460;2023-04-08T07:23:23;18.63;;;6.35;;
27213;SDS011;14723;55.814;37.460;2023-04-08T07:26:28;17.05;;;7.28;;
27213;SDS011;14723;55.814;37.460;2023-04-08T07:29:33;17.92;;;6.65;;
27213;SDS011;14723;55.814;37.460;2023-04-08T07:32:39;17.85;;;7.97;;
27213;SDS011;14723;55.814;37.460;2023-04-08T07:35:44;23.90;;;7.90;;
27213;SDS011;14723;55.814;37.460;2023-04-08T07:38:52;23.45;;;8.27;;
27213;SDS011;14723;55.814;37.460;2023-04-08T07:41:57;27.17;;;8.05;;
27213;SDS011;14723;55.814;37.460;2023-04-08T07:45:03;16.13;;;6.88;;
27213;SDS011;14723;55.814;37.460;2023-04-08T07:48:08;16.38;;;5.97;;
27213;SDS011;14723;55.814;37.460;2023-04-08T07:51:13;23.15;;;6.72;;
27213;SDS011;14723;55.814;37.460;2023-04-08T07:54:24;19.60;;;8.25;;
27213;SDS011;14723;55.814;37.460;2023-04-08T07:57:30;17.92;;;7.00;;
27213;SDS011;14723;55.814;37.460;2023-04-08T08:00:35;20.25;;;7.40;;
27213;SDS011;14723;55.814;37.460;2023-04-08T08:03:42;15.93;;;6.13;;
27213;SDS011;14723;55.814;37.460;2023-04-08T08:06:49;18.85;;;6.20;;
27213;SDS011;14723;55.814;37.460;2023-04-08T08:09:57;15.45;;;7.05;;
27213;SDS011;14723;55.814;37.460;2023-04-08T08:13:03;13.90;;;5.97;;
27213;SDS011;14723;55.814;37.460;2023-04-08T08:16:09;11.90;;;6.13;;
27213;SDS011;14723;55.814;37.460;2023-04-08T08:19:15;12.95;;;6.35;;
27213;SDS011;14723;55.814;37.460;2023-04-08T08:22:20;14.20;;;7.00;;
27213;SDS011;14723;55.814;37.460;2023-04-08T08:25:28;16.15;;;6.18;;
27213;SDS011;14723;55.814;37.460;2023-04-08T08:28:33;17.30;;;5.88;;
27213;SDS011;14723;55.814;37.460;2023-04-08T08:31:39;17.30;;;4.60;;
27213;SDS011;14723;55.814;37.460;2023-04-08T08:34:45;15.23;;;5.03;;
27213;SDS011;14723;55.814;37.460;2023-04-08T08:37:50;9.48;;;5.30;;
27213;SDS011;14723;55.814;37.460;2023-04-08T08:40:59;12.38;;;5.40;;
27213;SDS011;14723;55.814;37.460;2023-04-08T08:44:05;15.93;;;5.75;;
27213;SDS011;14723;55.814;37.460;2023-04-08T08:47:11;16.95;;;6.10;;
27213;SDS011;14723;55.814;37.460;2023-04-08T08:50:17;11.40;;;5.47;;
27213;SDS011;14723;55.814;37.460;2023-04-08T08:53:25;8.65;;;4.03;;
27213;SDS011;14723;55.814;37.460;2023-04-08T08:56:39;12.00;;;3.78;;
27213;SDS011;14723;55.814;37.460;2023-04-08T08:59:45;7.07;;;3.63;;
27213;SDS011;14723;55.814;37.460;2023-04-08T09:02:50;9.55;;;3.90;;
27213;SDS011;14723;55.814;37.460;2023-04-08T09:05:56;9.50;;;3.53;;
27213;SDS011;14723;55.814;37.460;2023-04-08T09:09:02;10.02;;;3.55;;
27213;SDS011;14723;55.814;37.460;2023-04-08T09:12:14;8.30;;;3.85;;
27213;SDS011;14723;55.814;37.460;2023-04-08T09:15:19;8.27;;;3.90;;
27213;SDS011;14723;55.814;37.460;2023-04-08T09:18:25;20.13;;;9.35;;
27213;SDS011;14723;55.814;37.460;2023-04-08T09:21:30;6.80;;;3.88;;
27213;SDS011;14723;55.814;37.460;2023-04-08T09:24:36;8.57;;;3.78;;
27213;SDS011;14723;55.814;37.460;2023-04-08T09:27:44;11.32;;;4.28;;
27213;SDS011;14723;55.814;37.460;2023-04-08T09:30:50;8.60;;;4.45;;
27213;SDS011;14723;55.814;37.460;2023-04-08T09:33:55;13.20;;;4.60;;
27213;SDS011;14723;55.814;37.460;2023-04-08T09:37:01;7.75;;;3.50;;
27213;SDS011;14723;55.814;37.460;2023-04-08T09:40:07;10.55;;;4.40;;
27213;SDS011;14723;55.814;37.460;2023-04-08T09:43:17;7.68;;;3.75;;
27213;SDS011;14723;55.814;37.460;2023-04-08T09:46:25;11.23;;;4.13;;
27213;SDS011;14723;55.814;37.460;2023-04-08T09:49:32;13.18;;;4.45;;
27213;SDS011;14723;55.814;37.460;2023-04-08T09:52:42;12.82;;;4.63;;
27213;SDS011;14723;55.814;37.460;2023-04-08T09:55:49;14.70;;;5.97;;
27213;SDS011;14723;55.814;37.460;2023-04-08T09:58:58;20.88;;;6.25;;
27213;SDS011;14723;55.814;37.460;2023-04-08T10:02:06;13.60;;;5.90;;
27213;SDS011;14723;55.814;37.460;2023-04-08T10:05:14;13.35;;;6.90;;
27213;SDS011;14723;55.814;37.460;2023-04-08T10:08:21;14.38;;;6.30;;
27213;SDS011;14723;55.814;37.460;2023-04-08T10:11:28;19.75;;;6.35;;
27213;SDS011;14723;55.814;37.460;2023-04-08T10:14:37;12.20;;;6.63;;
27213;SDS011;14723;55.814;37.460;2023-04-08T10:17:43;15.48;;;6.50;;
27213;SDS011;14723;55.814;37.460;2023-04-08T10:20:48;12.63;;;6.45;;
27213;SDS011;14723;55.814;37.460;2023-04-08T10:23:55;24.85;;;6.93;;
27213;SDS011;14723;55.814;37.460;2023-04-08T10:27:01;16.42;;;7.40;;
27213;SDS011;14723;55.814;37.460;2023-04-08T10:33:41;14.02;;;6.72;;
27213;SDS011;14723;55.814;37.460;2023-04-08T10:36:46;16.40;;;7.00;;
27213;SDS011;14723;55.814;37.460;2023-04-08T10:39:53;14.75;;;6.40;;
27213;SDS011;14723;55.814;37.460;2023-04-08T10:42:58;15.65;;;6.90;;
27213;SDS011;14723;55.814;37.460;2023-04-08T10:46:06;15.73;;;5.93;;
27213;SDS011;14723;55.814;37.460;2023-04-08T10:49:14;16.63;;;6.25;;
27213;SDS011;14723;55.814;37.460;2023-04-08T10:52:20;19.95;;;6.40;;
27213;SDS011;14723;55.814;37.460;2023-04-08T10:55:25;17.50;;;7.13;;
27213;SDS011;14723;55.814;37.460;2023-04-08T10:58:31;13.85;;;5.90;;
27213;SDS011;14723;55.814;37.460;2023-04-08T11:01:40;17.33;;;5.70;;
27213;SDS011;14723;55.814;37.460;2023-04-08T11:04:46;15.60;;;6.38;;
27213;SDS011;14723;55.814;37.460;2023-04-08T11:07:52;16.30;;;6.70;;
27213;SDS011;14723;55.814;37.460;2023-04-08T11:10:57;18.67;;;6.80;;
27213;SDS011;14723;55.814;37.460;2023-04-08T11:14:03;12.38;;;6.50;;
27213;SDS011;14723;55.814;37.460;2023-04-08T11:17:12;18.67;;;6.07;;
27213;SDS011;14723;55.814;37.460;2023-04-08T11:20:19;15.95;;;6.43;;
27213;SDS011;14723;55.814;37.460;2023-04-08T11:23:24;15.68;;;6.60;;
27213;SDS011;14723;55.814;37.460;2023-04-08T11:26:30;10.98;;;6.13;;
27213;SDS011;14723;55.814;37.460;2023-04-08T11:29:36;16.38;;;7.10;;
27213;SDS011;14723;55.814;37.460;2023-04-08T11:32:44;14.13;;;7.25;;
27213;SDS011;14723;55.814;37.460;2023-04-08T11:35:50;14.70;;;7.05;;
27213;SDS011;14723;55.814;37.460;2023-04-08T11:38:55;12.60;;;6.88;;
27213;SDS011;14723;55.814;37.460;2023-04-08T11:42:03;11.27;;;6.05;;
27213;SDS011;14723;55.814;37.460;2023-04-08T11:45:09;12.73;;;6.90;;
27213;SDS011;14723;55.814;37.460;2023-04-08T11:48:17;10.85;;;6.30;;
27213;SDS011;14723;55.814;37.460;2023-04-08T11:51:23;12.55;;;6.15;;
27213;SDS011;14723;55.814;37.460;2023-04-08T11:54:29;17.13;;;7.20;;
27213;SDS011;14723;55.814;37.460;2023-04-08T11:57:35;16.27;;;6.72;;
27213;SDS011;14723;55.814;37.460;2023-04-08T12:00:40;13.10;;;6.82;;
27213;SDS011;14723;55.814;37.460;2023-04-08T12:04:01;10.43;;;6.07;;
27213;SDS011;14723;55.814;37.460;2023-04-08T12:07:08;8.65;;;6.35;;
27213;SDS011;14723;55.814;37.460;2023-04-08T12:10:14;11.82;;;6.38;;
27213;SDS011;14723;55.814;37.460;2023-04-08T12:13:19;8.27;;;6.18;;
27213;SDS011;14723;55.814;37.460;2023-04-08T12:16:25;10.77;;;6.00;;
27213;SDS011;14723;55.814;37.460;2023-04-08T12:19:33;8.43;;;6.15;;
27213;SDS011;14723;55.814;37.460;2023-04-08T12:22:39;8.85;;;5.95;;
27213;SDS011;14723;55.814;37.460;2023-04-08T12:25:45;14.10;;;6.25;;
27213;SDS011;14723;55.814;37.460;2023-04-08T12:28:53;13.98;;;6.20;;
27213;SDS011;14723;55.814;37.460;2023-04-08T12:31:59;12.35;;;6.88;;
27213;SDS011;14723;55.814;37.460;2023-04-08T12:35:08;8.87;;;6.27;;
27213;SDS011;14723;55.814;37.460;2023-04-08T12:38:13;15.23;;;6.95;;
27213;SDS011;14723;55.814;37.460;2023-04-08T12:41:19;10.95;;;6.50;;
27213;SDS011;14723;55.814;37.460;2023-04-08T12:44:24;8.70;;;6.95;;
27213;SDS011;14723;55.814;37.460;2023-04-08T12:47:30;14.93;;;7.20;;
27213;SDS011;14723;55.814;37.460;2023-04-08T12:50:38;11.02;;;6.57;;
27213;SDS011;14723;55.814;37.460;2023-04-08T12:53:43;14.85;;;6.85;;
27213;SDS011;14723;55.814;37.460;2023-04-08T12:56:48;9.27;;;6.38;;
27213;SDS011;14723;55.814;37.460;2023-04-08T12:59:54;14.13;;;6.85;;
27213;SDS011;14723;55.814;37.460;2023-04-08T13:02:59;16.40;;;7.32;;
27213;SDS011;14723;55.814;37.460;2023-04-08T13:06:07;14.23;;;7.10;;
27213;SDS011;14723;55.814;37.460;2023-04-08T13:09:13;12.57;;;7.05;;
27213;SDS011;14723;55.814;37.460;2023-04-08T13:12:19;11.32;;;6.60;;
27213;SDS011;14723;55.814;37.460;2023-04-08T13:15:24;9.45;;;6.60;;
27213;SDS011;14723;55.814;37.460;2023-04-08T13:18:30;10.32;;;6.18;;
27213;SDS011;14723;55.814;37.460;2023-04-08T13:21:38;14.27;;;7.15;;
27213;SDS011;14723;55.814;37.460;2023-04-08T13:24:46;8.70;;;6.55;;
27213;SDS011;14723;55.814;37.460;2023-04-08T13:27:52;9.68;;;7.10;;
27213;SDS011;14723;55.814;37.460;2023-04-08T13:30:57;11.85;;;6.85;;
27213;SDS011;14723;55.814;37.460;2023-04-08T13:34:03;14.02;;;7.85;;
27213;SDS011;14723;55.814;37.460;2023-04-08T13:37:11;11.63;;;7.38;;
27213;SDS011;14723;55.814;37.460;2023-04-08T13:40:17;12.50;;;7.78;;
27213;SDS011;14723;55.814;37.460;2023-04-08T13:43:22;14.18;;;7.68;;
27213;SDS011;14723;55.814;37.460;2023-04-08T13:46:27;13.73;;;7.70;;
27213;SDS011;14723;55.814;37.460;2023-04-08T13:49:32;12.10;;;8.05;;
27213;SDS011;14723;55.814;37.460;2023-04-08T13:52:40;13.07;;;7.47;;
27213;SDS011;14723;55.814;37.460;2023-04-08T13:55:46;9.45;;;7.25;;
27213;SDS011;14723;55.814;37.460;2023-04-08T13:58:56;13.98;;;8.48;;
27213;SDS011;14723;55.814;37.460;2023-04-08T14:02:01;16.52;;;8.30;;
27213;SDS011;14723;55.814;37.460;2023-04-08T14:05:07;13.98;;;8.07;;
27213;SDS011;14723;55.814;37.460;2023-04-08T14:08:16;13.85;;;7.55;;
27213;SDS011;14723;55.814;37.460;2023-04-08T14:11:26;12.57;;;7.15;;
27213;SDS011;14723;55.814;37.460;2023-04-08T14:14:32;17.95;;;7.55;;
27213;SDS011;14723;55.814;37.460;2023-04-08T14:17:37;15.25;;;7.20;;
27213;SDS011;14723;55.814;37.460;2023-04-08T14:20:43;16.17;;;7.28;;
27213;SDS011;14723;55.814;37.460;2023-04-08T14:23:51;11.02;;;6.57;;
27213;SDS011;14723;55.814;37.460;2023-04-08T14:26:56;19.88;;;6.82;;
27213;SDS011;14723;55.814;37.460;2023-04-08T14:30:02;13.63;;;7.13;;
27213;SDS011;14723;55.814;37.460;2023-04-08T14:33:07;13.73;;;7.13;;
27213;SDS011;14723;55.814;37.460;2023-04-08T14:36:13;11.15;;;6.28;;
27213;SDS011;14723;55.814;37.460;2023-04-08T14:39:21;12.43;;;6.55;;
27213;SDS011;14723;55.814;37.460;2023-04-08T14:42:27;9.88;;;5.97;;
27213;SDS011;14723;55.814;37.460;2023-04-08T14:45:32;16.90;;;5.72;;
27213;SDS011;14723;55.814;37.460;2023-04-08T14:48:38;15.30;;;5.68;;
27213;SDS011;14723;55.814;37.460;2023-04-08T14:51:43;16.15;;;7.22;;
27213;SDS011;14723;55.814;37.460;2023-04-08T14:54:51;10.70;;;6.47;;
27213;SDS011;14723;55.814;37.460;2023-04-08T14:57:57;15.27;;;5.75;;
27213;SDS011;14723;55.814;37.460;2023-04-08T15:01:03;21.15;;;7.05;;
27213;SDS011;14723;55.814;37.460;2023-04-08T15:04:09;14.00;;;7.03;;
27213;SDS011;14723;55.814;37.460;2023-04-08T15:07:14;20.38;;;7.38;;
27213;SDS011;14723;55.814;37.460;2023-04-08T15:10:22;14.38;;;5.93;;
27213;SDS011;14723;55.814;37.460;2023-04-08T15:13:29;21.00;;;7.85;;
27213;SDS011;14723;55.814;37.460;2023-04-08T15:16:37;11.68;;;5.97;;
27213;SDS011;14723;55.814;37.460;2023-04-08T15:19:42;14.98;;;5.60;;
27213;SDS011;14723;55.814;37.460;2023-04-08T15:22:48;10.77;;;5.20;;
27213;SDS011;14723;55.814;37.460;2023-04-08T15:25:55;15.63;;;6.90;;
27213;SDS011;14723;55.814;37.460;2023-04-08T15:29:01;12.77;;;5.95;;
27213;SDS011;14723;55.814;37.460;2023-04-08T15:32:06;19.10;;;6.60;;
27213;SDS011;14723;55.814;37.460;2023-04-08T15:35:11;13.20;;;5.88;;
27213;SDS011;14723;55.814;37.460;2023-04-08T15:38:17;20.77;;;5.85;;
27213;SDS011;14723;55.814;37.460;2023-04-08T15:41:25;16.88;;;6.35;;
27213;SDS011;14723;55.814;37.460;2023-04-08T15:44:31;10.63;;;5.97;;
27213;SDS011;14723;55.814;37.460;2023-04-08T15:47:36;13.38;;;5.45;;
27213;SDS011;14723;55.814;37.460;2023-04-08T15:50:42;14.02;;;5.57;;
27213;SDS011;14723;55.814;37.460;2023-04-08T15:53:48;17.30;;;8.07;;
27213;SDS011;14723;55.814;37.460;2023-04-08T15:56:56;15.63;;;7.20;;
27213;SDS011;14723;55.814;37.460;2023-04-08T16:00:07;14.52;;;6.45;;
27213;SDS011;14723;55.814;37.460;2023-04-08T16:03:15;25.42;;;8.02;;
27213;SDS011;14723;55.814;37.460;2023-04-08T16:06:20;19.02;;;7.10;;
27213;SDS011;14723;55.814;37.460;2023-04-08T16:09:27;22.63;;;6.85;;
27213;SDS011;14723;55.814;37.460;2023-04-08T16:12:35;14.48;;;7.03;;
27213;SDS011;14723;55.814;37.460;2023-04-08T16:15:40;18.30;;;7.20;;
27213;SDS011;14723;55.814;37.460;2023-04-08T16:18:46;19.73;;;7.30;;
27213;SDS011;14723;55.814;37.460;2023-04-08T16:21:51;21.45;;;7.57;;
27213;SDS011;14723;55.814;37.460;2023-04-08T16:24:57;25.25;;;6.50;;
27213;SDS011;14723;55.814;37.460;2023-04-08T16:28:06;26.15;;;7.05;;
27213;SDS011;14723;55.814;37.460;2023-04-08T16:31:12;24.00;;;8.13;;
27213;SDS011;14723;55.814;37.460;2023-04-08T16:34:19;21.92;;;8.07;;
27213;SDS011;14723;55.814;37.460;2023-04-08T16:37:24;20.80;;;7.85;;
27213;SDS011;14723;55.814;37.460;2023-04-08T16:40:30;24.27;;;8.73;;
27213;SDS011;14723;55.814;37.460;2023-04-08T16:43:39;17.85;;;7.45;;
27213;SDS011;14723;55.814;37.460;2023-04-08T16:46:44;32.88;;;7.50;;
27213;SDS011;14723;55.814;37.460;2023-04-08T16:49:50;27.25;;;8.38;;
27213;SDS011;14723;55.814;37.460;2023-04-08T16:52:55;17.55;;;7.60;;
27213;SDS011;14723;55.814;37.460;2023-04-08T16:56:01;29.05;;;8.77;;
27213;SDS011;14723;55.814;37.460;2023-04-08T16:59:09;24.77;;;8.82;;
27213;SDS011;14723;55.814;37.460;2023-04-08T17:02:14;37.72;;;9.02;;
27213;SDS011;14723;55.814;37.460;2023-04-08T17:05:20;16.98;;;8.10;;
27213;SDS011;14723;55.814;37.460;2023-04-08T17:08:26;25.40;;;7.72;;
27213;SDS011;14723;55.814;37.460;2023-04-08T17:11:32;26.08;;;7.80;;
27213;SDS011;14723;55.814;37.460;2023-04-08T17:14:40;21.17;;;9.38;;
27213;SDS011;14723;55.814;37.460;2023-04-08T17:17:46;23.83;;;9.18;;
27213;SDS011;14723;55.814;37.460;2023-04-08T17:20:51;23.50;;;9.95;;
27213;SDS011;14723;55.814;37.460;2023-04-08T17:23:57;27.27;;;9.88;;
27213;SDS011;14723;55.814;37.460;2023-04-08T17:27:02;33.40;;;9.00;;
27213;SDS011;14723;55.814;37.460;2023-04-08T17:30:11;26.23;;;9.90;;
27213;SDS011;14723;55.814;37.460;2023-04-08T17:36:21;29.17;;;10.13;;
27213;SDS011;14723;55.814;37.460;2023-04-08T17:39:30;21.20;;;9.77;;
27213;SDS011;14723;55.814;37.460;2023-04-08T17:42:41;28.77;;;10.75;;
27213;SDS011;14723;55.814;37.460;2023-04-08T17:45:49;25.33;;;9.80;;
27213;SDS011;14723;55.814;37.460;2023-04-08T17:52:00;24.90;;;10.57;;
27213;SDS011;14723;55.814;37.460;2023-04-08T17:55:06;31.10;;;10.73;;
27213;SDS011;14723;55.814;37.460;2023-04-08T17:58:13;26.05;;;10.57;;
27213;SDS011;14723;55.814;37.460;2023-04-08T18:01:21;31.05;;;10.77;;
27213;SDS011;14723;55.814;37.460;2023-04-08T18:04:26;25.55;;;10.30;;
27213;SDS011;14723;55.814;37.460;2023-04-08T18:07:32;29.98;;;11.65;;
27213;SDS011;14723;55.814;37.460;2023-04-08T18:10:38;23.17;;;10.70;;
27213;SDS011;14723;55.814;37.460;2023-04-08T18:13:46;26.27;;;10.85;;
27213;SDS011;14723;55.814;37.460;2023-04-08T18:16:54;23.67;;;10.73;;
27213;SDS011;14723;55.814;37.460;2023-04-08T18:20:00;32.60;;;10.48;;
27213;SDS011;14723;55.814;37.460;2023-04-08T18:23:05;23.35;;;10.25;;
27213;SDS011;14723;55.814;37.460;2023-04-08T18:26:11;18.60;;;9.93;;